createdAt,value
2022-11-30T00:00:16.238Z,29.47
2022-11-30T03:33:11.657Z,18.90
2022-11-30T03:35:38.839Z,20.40
2022-11-30T03:38:07.941Z,20.07
2022-11-30T03:40:36.934Z,18.73
2022-11-30T03:43:10.553Z,19.93
2022-11-30T03:45:37.986Z,19.53
2022-11-30T03:48:05.311Z,20.23
2022-11-30T03:50:33.809Z,17.93
2022-11-30T03:53:00.898Z,20.87
2022-11-30T03:55:27.836Z,20.63
2022-11-30T03:57:55.080Z,19.63
2022-11-30T04:00:22.142Z,20.47
2022-11-30T04:02:49.217Z,19.10
2022-11-30T04:05:16.263Z,20.53
2022-11-30T04:07:44.759Z,18.53
2022-11-30T04:10:12.088Z,17.80
2022-11-30T04:12:39.273Z,17.70
2022-11-30T04:15:07.321Z,16.63
2022-11-30T04:17:34.402Z,18.30
2022-11-30T04:20:01.462Z,16.73
2022-11-30T04:22:28.425Z,17.23
2022-11-30T04:24:56.868Z,16.63
2022-11-30T04:27:23.831Z,16.93
2022-11-30T04:29:51.045Z,18.20
2022-11-30T04:32:18.113Z,14.80
2022-11-30T04:34:45.586Z,15.23
2022-11-30T04:37:12.820Z,15.83
2022-11-30T04:39:39.881Z,15.27
2022-11-30T04:42:08.410Z,15.87
2022-11-30T04:44:35.387Z,15.20
2022-11-30T04:47:02.484Z,15.60
2022-11-30T04:49:29.537Z,14.83
2022-11-30T04:51:56.622Z,14.17
2022-11-30T04:54:23.782Z,15.80
2022-11-30T04:56:51.049Z,14.53
2022-11-30T04:59:19.566Z,14.07
2022-11-30T05:01:49.023Z,15.43
2022-11-30T05:04:16.230Z,15.13
2022-11-30T05:06:43.342Z,13.70
2022-11-30T05:09:10.369Z,13.77
2022-11-30T05:11:37.553Z,17.10
2022-11-30T05:14:05.641Z,15.00
2022-11-30T05:16:34.286Z,15.60
2022-11-30T05:19:01.697Z,15.00
2022-11-30T05:21:28.935Z,15.60
2022-11-30T05:23:56.389Z,14.57
2022-11-30T05:26:23.693Z,13.17
2022-11-30T05:28:50.943Z,15.60
2022-11-30T05:31:19.470Z,16.33
2022-11-30T05:33:52.181Z,14.63
2022-11-30T05:36:19.663Z,14.83
2022-11-30T05:38:48.246Z,14.47
2022-11-30T05:41:15.521Z,15.70
2022-11-30T05:43:42.762Z,15.67
2022-11-30T05:46:10.437Z,14.17
2022-11-30T05:48:37.711Z,13.53
2022-11-30T05:51:07.953Z,14.87
2022-11-30T05:53:35.369Z,17.10
2022-11-30T05:56:03.729Z,15.10
2022-11-30T05:58:30.748Z,16.37
2022-11-30T06:00:57.804Z,15.03
2022-11-30T06:03:25.520Z,15.67
2022-11-30T06:05:53.357Z,16.03
2022-11-30T06:08:23.014Z,17.10
2022-11-30T06:10:50.252Z,16.63
2022-11-30T06:13:17.565Z,16.97
2022-11-30T06:15:44.616Z,15.97
2022-11-30T06:18:13.292Z,16.90
2022-11-30T06:20:40.691Z,18.07
2022-11-30T06:23:08.218Z,16.07
2022-11-30T06:25:36.808Z,15.37
2022-11-30T06:28:04.077Z,16.87
2022-11-30T06:30:31.362Z,17.27
2022-11-30T06:32:58.921Z,17.37
2022-11-30T06:35:26.186Z,17.63
2022-11-30T06:37:55.188Z,15.83
2022-11-30T06:40:22.503Z,17.63
2022-11-30T06:42:51.130Z,18.73
2022-11-30T06:45:18.400Z,17.17
2022-11-30T06:47:45.408Z,17.47
2022-11-30T06:50:15.527Z,17.10
2022-11-30T06:52:42.492Z,18.37
2022-11-30T06:55:09.899Z,16.73
2022-11-30T06:57:40.201Z,17.00
2022-11-30T07:00:09.966Z,18.60
2022-11-30T07:02:37.118Z,17.53
2022-11-30T07:05:04.940Z,18.10
2022-11-30T07:07:32.321Z,18.47
2022-11-30T07:09:59.391Z,17.57
2022-11-30T07:12:26.812Z,18.33
2022-11-30T07:14:56.733Z,19.20
2022-11-30T07:17:25.192Z,17.60
2022-11-30T07:19:52.344Z,18.17
2022-11-30T07:22:19.375Z,17.60
2022-11-30T07:25:04.741Z,17.87
2022-11-30T07:27:31.709Z,18.30
2022-11-30T07:29:58.705Z,25.00
2022-11-30T07:32:27.012Z,31.70
2022-11-30T07:34:54.044Z,24.23
2022-11-30T07:37:21.053Z,18.83
2022-11-30T07:39:48.038Z,21.73
2022-11-30T07:42:15.103Z,20.30
2022-11-30T07:44:42.616Z,21.13
2022-11-30T07:47:09.728Z,19.83
2022-11-30T07:49:39.771Z,23.80
2022-11-30T07:52:07.059Z,20.47
2022-11-30T07:54:34.167Z,24.40
2022-11-30T07:57:01.237Z,23.43
2022-11-30T07:59:28.148Z,22.03
2022-11-30T08:01:55.455Z,21.80
2022-11-30T08:04:22.842Z,22.97
2022-11-30T08:06:53.827Z,26.20
2022-11-30T08:09:21.327Z,24.93
2022-11-30T08:11:49.086Z,23.47
2022-11-30T08:14:16.403Z,24.03
2022-11-30T08:16:47.714Z,22.37
2022-11-30T08:19:14.819Z,21.53
2022-11-30T08:21:41.829Z,24.97
2022-11-30T08:24:13.670Z,23.73
2022-11-30T08:26:41.204Z,25.20
2022-11-30T08:29:11.613Z,23.53
2022-11-30T08:31:38.800Z,26.30
2022-11-30T08:34:08.333Z,22.93
2022-11-30T08:36:35.397Z,23.83
2022-11-30T08:39:05.107Z,22.93
2022-11-30T08:41:35.075Z,22.90
2022-11-30T08:44:02.718Z,23.87
2022-11-30T08:52:19.373Z,20.90
2022-11-30T08:54:48.050Z,23.20
2022-11-30T08:57:18.816Z,22.70
2022-11-30T08:59:46.175Z,22.27
2022-11-30T09:02:19.184Z,23.53
2022-11-30T09:04:49.081Z,22.33
2022-11-30T09:07:16.682Z,21.77
2022-11-30T09:09:44.033Z,21.87
2022-11-30T09:12:11.291Z,22.40
2022-11-30T09:14:40.112Z,23.10
2022-11-30T09:17:07.200Z,20.17
2022-11-30T09:19:34.473Z,21.20
2022-11-30T09:22:01.525Z,18.30
2022-11-30T09:24:28.502Z,19.67
2022-11-30T09:26:56.837Z,18.27
2022-11-30T09:29:23.992Z,19.50
2022-11-30T09:31:52.810Z,19.67
2022-11-30T09:34:44.909Z,18.17
2022-11-30T09:37:29.258Z,18.17
2022-11-30T09:40:15.345Z,18.63
2022-11-30T09:43:24.960Z,19.00
2022-11-30T09:46:26.201Z,22.80
2022-11-30T09:49:10.413Z,24.83
2022-11-30T09:52:15.506Z,26.33
2022-11-30T09:54:49.097Z,26.27
2022-11-30T09:57:25.626Z,22.33
2022-11-30T09:59:56.282Z,21.97
2022-11-30T10:02:28.471Z,22.67
2022-11-30T10:05:35.540Z,21.27
2022-11-30T10:08:51.018Z,21.27
2022-11-30T10:45:01.681Z,18.80
2022-11-30T10:47:36.720Z,18.20
2022-11-30T10:50:06.489Z,19.77
2022-11-30T10:52:44.452Z,17.83
2022-11-30T10:55:14.705Z,18.30
2022-11-30T10:57:42.373Z,17.90
2022-11-30T11:00:14.638Z,16.37
2022-11-30T11:02:43.104Z,17.57
2022-11-30T11:05:17.486Z,16.70
2022-11-30T11:07:55.246Z,16.73
2022-11-30T11:10:27.108Z,17.73
2022-11-30T11:12:55.385Z,17.93
2022-11-30T11:15:24.862Z,16.43
2022-11-30T11:17:53.728Z,17.33
2022-11-30T11:20:36.898Z,18.13
2022-11-30T11:23:04.684Z,18.73
2022-11-30T11:25:34.277Z,18.97
2022-11-30T11:28:08.906Z,16.23
2022-11-30T11:30:37.150Z,19.47
2022-11-30T11:33:18.992Z,18.43
2022-11-30T11:35:49.675Z,17.17
2022-11-30T11:38:25.427Z,16.60
2022-11-30T11:40:54.939Z,17.47
2022-11-30T11:43:23.454Z,16.23
2022-11-30T11:45:52.793Z,17.53
2022-11-30T11:48:33.693Z,14.80
2022-11-30T11:51:07.136Z,18.00
2022-11-30T11:53:51.597Z,18.50
2022-11-30T11:56:25.989Z,16.67
2022-11-30T11:58:58.828Z,15.10
2022-11-30T12:01:40.660Z,16.13
2022-11-30T12:04:23.456Z,15.87
2022-11-30T12:06:54.293Z,14.53
2022-11-30T12:09:27.559Z,15.50
2022-11-30T12:11:54.597Z,12.53
2022-11-30T12:14:21.623Z,18.30
2022-11-30T12:17:05.234Z,14.80
2022-11-30T12:19:41.342Z,13.63
2022-11-30T12:22:28.145Z,14.07
2022-11-30T12:25:10.519Z,15.67
2022-11-30T12:27:44.581Z,14.10
2022-11-30T12:30:19.814Z,15.27
2022-11-30T12:33:10.590Z,13.73
2022-11-30T12:35:45.750Z,12.43
2022-11-30T12:38:25.912Z,15.80
2022-11-30T12:41:00.970Z,13.37
2022-11-30T12:43:37.999Z,12.67
2022-11-30T12:46:12.168Z,11.00
2022-11-30T12:48:48.333Z,13.63
2022-11-30T12:51:25.044Z,9.63
2022-11-30T12:54:04.280Z,10.10
2022-11-30T12:56:45.697Z,10.00
2022-11-30T12:59:26.309Z,12.87
2022-11-30T13:02:05.968Z,12.10
2022-11-30T13:04:40.921Z,12.80
2022-11-30T13:07:17.044Z,11.57
2022-11-30T13:09:51.826Z,14.90
2022-11-30T13:12:25.120Z,12.80
2022-11-30T13:14:57.009Z,11.83
2022-11-30T13:17:24.955Z,11.57
2022-11-30T13:19:59.199Z,13.13
2022-11-30T13:22:36.750Z,12.20
2022-11-30T13:25:17.151Z,11.47
2022-11-30T13:27:53.475Z,12.30
2022-11-30T13:30:32.978Z,11.77
2022-11-30T13:33:36.861Z,13.27
2022-11-30T13:36:05.778Z,14.07
2022-11-30T13:38:37.883Z,15.90
2022-11-30T13:41:08.520Z,15.07
2022-11-30T13:43:40.345Z,13.87
2022-11-30T13:46:18.872Z,12.57
2022-11-30T13:48:46.506Z,15.17
2022-11-30T13:51:33.306Z,13.33
2022-11-30T13:54:41.110Z,14.57
2022-11-30T13:57:53.295Z,17.47
2022-11-30T14:00:48.144Z,15.67
2022-11-30T14:03:26.316Z,14.43
2022-11-30T14:05:54.228Z,15.43
2022-11-30T14:08:39.052Z,15.87
2022-11-30T14:11:38.371Z,14.83
2022-11-30T14:14:46.843Z,16.10
2022-11-30T14:17:19.250Z,15.40
2022-11-30T14:19:48.171Z,17.23
2022-11-30T14:22:15.632Z,15.93
2022-11-30T14:24:46.159Z,15.03
2022-11-30T14:27:17.532Z,15.73
2022-11-30T14:29:47.065Z,16.20
2022-11-30T14:32:20.957Z,16.87
2022-11-30T14:34:50.593Z,15.37
2022-11-30T14:37:22.040Z,16.17
2022-11-30T14:39:50.364Z,15.13
2022-11-30T14:42:21.616Z,15.23
2022-11-30T14:44:49.440Z,14.73
2022-11-30T14:47:22.685Z,16.60
2022-11-30T14:49:52.457Z,16.20
2022-11-30T14:52:38.323Z,15.30
2022-11-30T14:55:17.792Z,14.57
2022-11-30T14:57:53.042Z,14.37
2022-11-30T15:00:21.418Z,17.43
2022-11-30T15:02:50.102Z,17.03
2022-11-30T15:05:20.775Z,16.27
2022-11-30T15:07:48.662Z,17.37
2022-11-30T15:10:18.881Z,15.20
2022-11-30T15:12:46.622Z,16.77
2022-11-30T15:15:17.288Z,18.53
2022-11-30T15:17:51.949Z,20.00
2022-11-30T15:20:24.145Z,17.57
2022-11-30T15:22:51.003Z,18.13
2022-11-30T15:25:18.775Z,17.23
2022-11-30T15:27:45.868Z,16.90
2022-11-30T15:30:17.239Z,17.40
2022-11-30T15:32:46.545Z,17.60
2022-11-30T15:35:34.334Z,18.27
2022-11-30T15:38:19.434Z,14.83
2022-11-30T15:40:53.176Z,13.67
2022-11-30T15:43:23.170Z,16.10
2022-11-30T15:45:55.441Z,14.10
2022-11-30T15:48:30.546Z,17.17
2022-11-30T15:50:59.452Z,14.67
2022-11-30T15:53:34.681Z,15.87
2022-11-30T15:56:05.109Z,16.57
2022-11-30T15:58:37.112Z,15.40
2022-11-30T16:01:08.824Z,16.37
2022-11-30T16:03:59.366Z,17.40
2022-11-30T16:06:29.813Z,15.87
2022-11-30T16:08:58.356Z,17.10
2022-11-30T16:11:25.239Z,16.93
2022-11-30T16:13:52.130Z,18.43
2022-11-30T16:16:21.051Z,17.63
2022-11-30T16:18:48.512Z,17.70
2022-11-30T16:21:18.518Z,16.93
2022-11-30T16:23:47.980Z,17.07
2022-11-30T16:26:51.883Z,14.40
2022-11-30T16:29:04.593Z,15.80
2022-11-30T16:31:31.566Z,13.60
2022-11-30T16:33:58.543Z,14.90
2022-11-30T16:36:25.425Z,12.77
2022-11-30T16:38:53.803Z,11.07
2022-11-30T16:41:22.646Z,9.33
2022-11-30T16:43:51.031Z,9.20
2022-11-30T16:46:19.413Z,9.70
2022-11-30T16:48:47.178Z,8.83
2022-11-30T16:51:17.046Z,9.03
2022-11-30T16:53:44.639Z,9.67
2022-11-30T16:56:14.785Z,10.37
2022-11-30T16:58:42.354Z,10.50
2022-11-30T17:01:15.180Z,10.20
2022-11-30T17:03:46.013Z,9.47
2022-11-30T17:06:17.474Z,10.40
2022-11-30T17:08:44.751Z,13.73
2022-11-30T17:11:18.033Z,8.93
2022-11-30T17:13:44.988Z,10.00
2022-11-30T17:16:11.969Z,9.77
2022-11-30T17:18:38.842Z,9.63
2022-11-30T17:21:06.171Z,9.97
2022-11-30T17:23:32.977Z,11.20
2022-11-30T17:25:59.854Z,10.17
2022-11-30T17:28:28.121Z,12.63
2022-11-30T17:30:55.044Z,12.07
2022-11-30T17:33:21.960Z,12.50
2022-11-30T17:35:49.029Z,13.57
2022-11-30T17:38:16.020Z,14.30
2022-11-30T17:40:43.051Z,14.73
2022-11-30T17:43:09.906Z,13.97
2022-11-30T17:45:40.286Z,15.03
2022-11-30T17:48:07.127Z,15.43
2022-11-30T17:50:33.969Z,15.13
2022-11-30T17:53:00.823Z,14.07
2022-11-30T17:55:27.673Z,16.17
2022-11-30T17:57:54.524Z,13.70
2022-11-30T18:00:22.449Z,12.60
2022-11-30T18:02:52.187Z,11.80
2022-11-30T18:05:19.503Z,11.43
2022-11-30T18:07:46.662Z,13.33
2022-11-30T18:10:14.263Z,14.17
2022-11-30T18:12:41.444Z,11.07
2022-11-30T18:15:09.298Z,11.83
2022-11-30T18:17:36.227Z,10.43
2022-11-30T18:20:05.627Z,9.50
2022-11-30T18:22:32.856Z,9.10
2022-11-30T18:24:59.739Z,10.70
2022-11-30T18:27:26.654Z,10.17
2022-11-30T18:29:53.602Z,10.53
2022-11-30T18:32:20.558Z,9.70
2022-11-30T18:34:49.671Z,9.73
2022-11-30T18:37:18.258Z,9.20
2022-11-30T18:39:45.116Z,10.70
2022-11-30T18:42:12.130Z,10.43
2022-11-30T18:44:38.991Z,8.97
2022-11-30T18:47:05.870Z,9.23
2022-11-30T18:49:32.713Z,9.43
2022-11-30T18:51:59.625Z,8.33
2022-11-30T18:54:27.928Z,6.83
2022-11-30T18:56:54.876Z,9.37
2022-11-30T18:59:21.732Z,8.00
2022-11-30T19:01:50.792Z,9.03
2022-11-30T19:04:17.741Z,9.30
2022-11-30T19:06:44.603Z,8.60
2022-11-30T19:09:13.728Z,9.63
2022-11-30T19:11:42.554Z,10.00
2022-11-30T19:14:12.730Z,12.33
2022-11-30T19:16:40.450Z,10.43
2022-11-30T19:19:10.271Z,11.20
2022-11-30T19:21:37.297Z,9.13
2022-11-30T19:24:04.624Z,11.00
2022-11-30T19:26:31.583Z,10.33
2022-11-30T19:28:59.828Z,10.87
2022-11-30T19:31:26.761Z,12.67
2022-11-30T19:33:55.456Z,10.67
2022-11-30T19:36:23.967Z,10.80
2022-11-30T19:38:51.485Z,10.90
2022-11-30T19:41:19.974Z,12.70
2022-11-30T19:43:53.937Z,11.73
2022-11-30T19:46:24.580Z,13.33
2022-11-30T19:48:56.586Z,13.30
2022-11-30T19:51:23.696Z,15.27
2022-11-30T19:53:55.431Z,17.07
2022-11-30T19:56:23.933Z,15.00
2022-11-30T19:58:51.477Z,16.00
2022-11-30T20:01:22.697Z,16.17
2022-11-30T20:03:51.898Z,15.83
2022-11-30T20:06:19.426Z,16.17
2022-11-30T20:08:46.355Z,14.07
2022-11-30T20:11:15.799Z,13.50
2022-11-30T20:13:42.826Z,11.10
2022-11-30T20:16:11.771Z,10.77
2022-11-30T20:18:44.172Z,11.07
2022-11-30T20:21:16.479Z,13.23
2022-11-30T20:23:44.741Z,10.87
2022-11-30T20:26:13.634Z,11.53
2022-11-30T20:28:40.825Z,13.83
2022-11-30T20:31:09.078Z,16.80
2022-11-30T20:33:36.612Z,16.33
2022-11-30T20:36:04.176Z,15.07
2022-11-30T20:38:32.471Z,15.40
2022-11-30T20:40:59.864Z,13.83
2022-11-30T20:43:27.007Z,12.27
2022-11-30T20:45:54.013Z,12.47
2022-11-30T20:48:21.024Z,12.67
2022-11-30T20:51:00.966Z,12.10
2022-11-30T20:53:28.195Z,13.47
2022-11-30T20:55:59.923Z,13.33
2022-11-30T20:58:27.258Z,13.33
2022-11-30T21:00:54.088Z,11.30
2022-11-30T21:03:20.944Z,10.70
2022-11-30T21:05:47.807Z,12.07
2022-11-30T21:08:14.672Z,12.23
2022-11-30T21:10:41.597Z,13.17
2022-11-30T21:13:09.855Z,10.40
2022-11-30T21:15:36.809Z,11.70
2022-11-30T21:18:03.861Z,12.37
2022-11-30T21:20:30.711Z,14.70
2022-11-30T21:22:57.622Z,12.97
2022-11-30T21:25:24.591Z,12.77
2022-11-30T21:27:54.865Z,15.33
2022-11-30T21:30:23.047Z,11.63
2022-11-30T21:32:49.906Z,11.97
2022-11-30T21:35:16.787Z,13.87
2022-11-30T21:37:43.647Z,10.93
2022-11-30T21:40:11.397Z,10.47
2022-11-30T21:42:38.309Z,12.97
2022-11-30T21:45:06.009Z,13.10
2022-11-30T21:47:34.276Z,11.30
2022-11-30T21:50:01.146Z,13.00
2022-11-30T21:52:28.308Z,12.43
2022-11-30T21:54:55.187Z,11.93
2022-11-30T21:57:22.386Z,14.20
2022-11-30T21:59:49.714Z,12.27
2022-11-30T22:02:16.800Z,10.53
2022-11-30T22:04:45.174Z,12.70
2022-11-30T22:07:13.202Z,12.47
2022-11-30T22:09:40.256Z,13.20
2022-11-30T22:12:07.243Z,12.37
2022-11-30T22:14:36.251Z,12.27
2022-11-30T22:17:03.137Z,12.03
2022-11-30T22:19:29.957Z,11.83
2022-11-30T22:21:58.154Z,13.03
2022-11-30T22:24:25.004Z,14.80
2022-11-30T22:26:51.826Z,11.73
2022-11-30T22:29:21.073Z,13.57
2022-11-30T22:31:49.903Z,12.17
2022-11-30T22:34:17.006Z,12.33
2022-11-30T22:36:45.263Z,11.13
2022-11-30T22:39:15.218Z,12.90
2022-11-30T22:41:45.329Z,12.77
2022-11-30T22:44:13.833Z,14.17
2022-11-30T22:46:41.653Z,13.33
2022-11-30T22:49:15.794Z,12.23
2022-11-30T22:51:45.637Z,13.70
2022-11-30T22:54:13.870Z,13.47
2022-11-30T22:56:41.736Z,13.87
2022-11-30T22:59:11.025Z,13.90
2022-11-30T23:01:39.676Z,15.60
2022-11-30T23:04:09.171Z,13.80
2022-11-30T23:06:37.053Z,12.97
2022-11-30T23:09:04.978Z,13.13
2022-11-30T23:11:33.598Z,15.17
2022-11-30T23:14:00.578Z,14.87
2022-11-30T23:16:27.550Z,13.90
2022-11-30T23:18:56.997Z,14.83
2022-11-30T23:21:26.435Z,14.03
2022-11-30T23:23:55.334Z,14.10
2022-11-30T23:26:24.477Z,14.37
2022-11-30T23:28:54.898Z,14.20
2022-11-30T23:31:33.853Z,15.77
2022-11-30T23:34:03.834Z,15.57
2022-11-30T23:36:30.673Z,15.10
2022-11-30T23:38:59.245Z,15.43
2022-11-30T23:41:26.751Z,13.50
2022-11-30T23:43:55.161Z,15.73
2022-11-30T23:46:22.124Z,15.03
2022-11-30T23:48:49.153Z,15.77
2022-11-30T23:51:16.067Z,16.07
2022-11-30T23:53:43.808Z,14.63
2022-11-30T23:56:14.036Z,15.87
2022-11-30T23:58:41.218Z,17.17
